sensor_id;sensor_type;location;lat;lon;timestamp;temperature;humidity
11083;DHT22;5595;50.186;8.468;2022-12-18T00:02:03;-4.60;99.90
11083;DHT22;5595;50.186;8.468;2022-12-18T00:04:31;-4.60;99.90
11083;DHT22;5595;50.186;8.468;2022-12-18T00:06:58;-4.60;99.90
11083;DHT22;5595;50.186;8.468;2022-12-18T00:09:25;-4.70;99.90
11083;DHT22;5595;50.186;8.468;2022-12-18T00:11:52;-4.70;99.90
11083;DHT22;5595;50.186;8.468;2022-12-18T00:14:19;-4.80;99.90
11083;DHT22;5595;50.186;8.468;2022-12-18T00:16:46;-4.80;99.90
11083;DHT22;5595;50.186;8.468;2022-12-18T00:19:13;-4.80;99.90
11083;DHT22;5595;50.186;8.468;2022-12-18T00:21:43;-4.90;99.90
11083;DHT22;5595;50.186;8.468;2022-12-18T00:24:10;-5.00;99.90
11083;DHT22;5595;50.186;8.468;2022-12-18T00:26:38;-5.00;99.90
11083;DHT22;5595;50.186;8.468;2022-12-18T00:29:09;-5.10;99.90
11083;DHT22;5595;50.186;8.468;2022-12-18T00:31:38;-5.10;99.90
11083;DHT22;5595;50.186;8.468;2022-12-18T00:34:05;-5.10;99.90
11083;DHT22;5595;50.186;8.468;2022-12-18T00:36:34;-5.20;99.90
11083;DHT22;5595;50.186;8.468;2022-12-18T00:39:04;-5.20;99.90
11083;DHT22;5595;50.186;8.468;2022-12-18T00:41:31;-5.20;99.90
11083;DHT22;5595;50.186;8.468;2022-12-18T00:44:17;-5.30;99.90
11083;DHT22;5595;50.186;8.468;2022-12-18T00:46:45;-5.30;99.90
11083;DHT22;5595;50.186;8.468;2022-12-18T00:49:12;-5.30;99.90
11083;DHT22;5595;50.186;8.468;2022-12-18T00:51:39;-5.30;99.90
11083;DHT22;5595;50.186;8.468;2022-12-18T00:54:07;-5.20;99.90
11083;DHT22;5595;50.186;8.468;2022-12-18T00:56:35;-5.20;99.90
11083;DHT22;5595;50.186;8.468;2022-12-18T00:59:02;-5.20;99.90
11083;DHT22;5595;50.186;8.468;2022-12-18T01:01:30;-5.10;99.90
11083;DHT22;5595;50.186;8.468;2022-12-18T01:03:58;-5.00;99.90
11083;DHT22;5595;50.186;8.468;2022-12-18T01:06:25;-4.90;99.90
11083;DHT22;5595;50.186;8.468;2022-12-18T01:08:52;-4.70;99.90
11083;DHT22;5595;50.186;8.468;2022-12-18T01:11:21;-4.60;99.90
11083;DHT22;5595;50.186;8.468;2022-12-18T01:13:48;-4.60;99.90
11083;DHT22;5595;50.186;8.468;2022-12-18T01:16:16;-4.50;99.90
11083;DHT22;5595;50.186;8.468;2022-12-18T01:18:43;-4.50;99.90
11083;DHT22;5595;50.186;8.468;2022-12-18T01:21:12;-4.60;99.90
11083;DHT22;5595;50.186;8.468;2022-12-18T01:23:39;-4.50;99.90
11083;DHT22;5595;50.186;8.468;2022-12-18T01:26:06;-4.50;99.90
11083;DHT22;5595;50.186;8.468;2022-12-18T01:28:35;-4.50;99.90
11083;DHT22;5595;50.186;8.468;2022-12-18T01:31:13;-4.50;99.90
11083;DHT22;5595;50.186;8.468;2022-12-18T01:33:40;-4.40;99.90
11083;DHT22;5595;50.186;8.468;2022-12-18T01:36:07;-4.30;99.90
11083;DHT22;5595;50.186;8.468;2022-12-18T01:38:34;-4.20;99.90
11083;DHT22;5595;50.186;8.468;2022-12-18T01:41:02;-4.20;99.90
11083;DHT22;5595;50.186;8.468;2022-12-18T01:43:44;-4.10;99.90
11083;DHT22;5595;50.186;8.468;2022-12-18T01:46:12;-4.10;99.90
11083;DHT22;5595;50.186;8.468;2022-12-18T01:48:39;-4.00;99.90
11083;DHT22;5595;50.186;8.468;2022-12-18T01:51:08;-4.00;99.90
11083;DHT22;5595;50.186;8.468;2022-12-18T01:53:36;-4.00;99.90
11083;DHT22;5595;50.186;8.468;2022-12-18T01:56:04;-4.00;99.90
11083;DHT22;5595;50.186;8.468;2022-12-18T01:58:37;-3.90;99.90
11083;DHT22;5595;50.186;8.468;2022-12-18T02:01:08;-4.00;99.90
11083;DHT22;5595;50.186;8.468;2022-12-18T02:03:36;-4.00;99.90
11083;DHT22;5595;50.186;8.468;2022-12-18T02:06:08;-4.00;99.90
11083;DHT22;5595;50.186;8.468;2022-12-18T02:08:43;-3.90;99.90
11083;DHT22;5595;50.186;8.468;2022-12-18T02:11:17;-3.90;99.90
11083;DHT22;5595;50.186;8.468;2022-12-18T02:13:50;-4.00;99.90
11083;DHT22;5595;50.186;8.468;2022-12-18T02:16:23;-4.00;99.90
11083;DHT22;5595;50.186;8.468;2022-12-18T02:18:55;-4.00;99.90
11083;DHT22;5595;50.186;8.468;2022-12-18T02:21:28;-4.00;99.90
11083;DHT22;5595;50.186;8.468;2022-12-18T02:24:11;-4.00;99.90
11083;DHT22;5595;50.186;8.468;2022-12-18T02:26:46;-4.00;99.90
11083;DHT22;5595;50.186;8.468;2022-12-18T02:29:16;-4.00;99.90
11083;DHT22;5595;50.186;8.468;2022-12-18T02:31:48;-4.00;99.90
11083;DHT22;5595;50.186;8.468;2022-12-18T02:34:18;-4.10;99.90
11083;DHT22;5595;50.186;8.468;2022-12-18T02:36:46;-4.10;99.90
11083;DHT22;5595;50.186;8.468;2022-12-18T02:39:16;-4.10;99.90
11083;DHT22;5595;50.186;8.468;2022-12-18T02:41:44;-4.10;99.90
11083;DHT22;5595;50.186;8.468;2022-12-18T02:44:12;-4.10;99.90
11083;DHT22;5595;50.186;8.468;2022-12-18T02:46:41;-4.20;99.90
11083;DHT22;5595;50.186;8.468;2022-12-18T02:49:17;-4.20;99.90
11083;DHT22;5595;50.186;8.468;2022-12-18T02:51:52;-4.20;99.90
11083;DHT22;5595;50.186;8.468;2022-12-18T02:54:36;-4.10;99.90
11083;DHT22;5595;50.186;8.468;2022-12-18T02:57:13;-4.10;99.90
11083;DHT22;5595;50.186;8.468;2022-12-18T02:59:47;-4.10;99.90
11083;DHT22;5595;50.186;8.468;2022-12-18T03:02:22;-4.10;99.90
11083;DHT22;5595;50.186;8.468;2022-12-18T03:04:57;-4.10;99.90
11083;DHT22;5595;50.186;8.468;2022-12-18T03:07:33;-4.10;99.90
11083;DHT22;5595;50.186;8.468;2022-12-18T03:10:02;-4.10;99.90
11083;DHT22;5595;50.186;8.468;2022-12-18T03:12:34;-4.10;99.90
11083;DHT22;5595;50.186;8.468;2022-12-18T03:15:04;-4.10;99.90
11083;DHT22;5595;50.186;8.468;2022-12-18T03:17:34;-4.10;99.90
11083;DHT22;5595;50.186;8.468;2022-12-18T03:20:05;-4.00;99.90
11083;DHT22;5595;50.186;8.468;2022-12-18T03:22:33;-4.00;99.90
11083;DHT22;5595;50.186;8.468;2022-12-18T03:25:04;-4.00;99.90
11083;DHT22;5595;50.186;8.468;2022-12-18T03:27:35;-4.00;99.90
11083;DHT22;5595;50.186;8.468;2022-12-18T03:30:05;-4.00;99.90
11083;DHT22;5595;50.186;8.468;2022-12-18T03:32:38;-3.90;99.90
11083;DHT22;5595;50.186;8.468;2022-12-18T03:35:07;-3.90;99.90
11083;DHT22;5595;50.186;8.468;2022-12-18T03:37:34;-4.00;99.90
11083;DHT22;5595;50.186;8.468;2022-12-18T03:40:02;-4.00;99.90
11083;DHT22;5595;50.186;8.468;2022-12-18T03:42:31;-4.00;99.90
11083;DHT22;5595;50.186;8.468;2022-12-18T03:45:07;-4.00;99.90
11083;DHT22;5595;50.186;8.468;2022-12-18T03:47:39;-4.00;99.90
11083;DHT22;5595;50.186;8.468;2022-12-18T03:50:12;-4.00;99.90
11083;DHT22;5595;50.186;8.468;2022-12-18T03:52:43;-4.00;99.90
11083;DHT22;5595;50.186;8.468;2022-12-18T03:55:12;-4.00;99.90
11083;DHT22;5595;50.186;8.468;2022-12-18T03:57:39;-4.00;99.90
11083;DHT22;5595;50.186;8.468;2022-12-18T04:00:11;-4.00;99.90
11083;DHT22;5595;50.186;8.468;2022-12-18T04:02:43;-4.00;99.90
11083;DHT22;5595;50.186;8.468;2022-12-18T04:05:11;-4.00;99.90
11083;DHT22;5595;50.186;8.468;2022-12-18T04:07:38;-4.10;99.90
11083;DHT22;5595;50.186;8.468;2022-12-18T04:10:07;-4.00;99.90
11083;DHT22;5595;50.186;8.468;2022-12-18T04:12:38;-4.00;99.90
11083;DHT22;5595;50.186;8.468;2022-12-18T04:15:06;-4.00;99.90
11083;DHT22;5595;50.186;8.468;2022-12-18T04:17:35;-4.00;99.90
11083;DHT22;5595;50.186;8.468;2022-12-18T04:20:02;-4.00;99.90
11083;DHT22;5595;50.186;8.468;2022-12-18T04:22:29;-4.10;99.90
11083;DHT22;5595;50.186;8.468;2022-12-18T04:24:56;-4.00;99.90
11083;DHT22;5595;50.186;8.468;2022-12-18T04:27:22;-4.00;99.90
11083;DHT22;5595;50.186;8.468;2022-12-18T04:29:49;-4.00;99.90
11083;DHT22;5595;50.186;8.468;2022-12-18T04:32:16;-4.00;99.90
11083;DHT22;5595;50.186;8.468;2022-12-18T04:34:44;-3.90;99.90
11083;DHT22;5595;50.186;8.468;2022-12-18T04:37:11;-3.90;99.90
11083;DHT22;5595;50.186;8.468;2022-12-18T04:39:38;-3.90;99.90
11083;DHT22;5595;50.186;8.468;2022-12-18T04:42:05;-3.90;99.90
11083;DHT22;5595;50.186;8.468;2022-12-18T04:44:31;-3.90;99.90
11083;DHT22;5595;50.186;8.468;2022-12-18T04:46:58;-3.90;99.90
11083;DHT22;5595;50.186;8.468;2022-12-18T04:49:25;-3.90;99.90
11083;DHT22;5595;50.186;8.468;2022-12-18T04:51:53;-3.90;99.90
11083;DHT22;5595;50.186;8.468;2022-12-18T04:54:20;-3.90;99.90
11083;DHT22;5595;50.186;8.468;2022-12-18T04:56:48;-3.90;99.90
11083;DHT22;5595;50.186;8.468;2022-12-18T04:59:15;-3.90;99.90
11083;DHT22;5595;50.186;8.468;2022-12-18T05:01:41;-3.90;99.90
11083;DHT22;5595;50.186;8.468;2022-12-18T05:04:08;-3.80;99.90
11083;DHT22;5595;50.186;8.468;2022-12-18T05:06:35;-3.80;99.90
11083;DHT22;5595;50.186;8.468;2022-12-18T05:09:03;-3.90;99.90
11083;DHT22;5595;50.186;8.468;2022-12-18T05:11:30;-3.80;99.90
11083;DHT22;5595;50.186;8.468;2022-12-18T05:13:57;-3.90;99.90
11083;DHT22;5595;50.186;8.468;2022-12-18T05:16:24;-3.80;99.90
11083;DHT22;5595;50.186;8.468;2022-12-18T05:18:50;-3.80;99.90
11083;DHT22;5595;50.186;8.468;2022-12-18T05:21:17;-3.80;99.90
11083;DHT22;5595;50.186;8.468;2022-12-18T05:23:44;-3.80;99.90
11083;DHT22;5595;50.186;8.468;2022-12-18T05:26:15;-3.80;99.90
11083;DHT22;5595;50.186;8.468;2022-12-18T05:28:43;-3.80;99.90
11083;DHT22;5595;50.186;8.468;2022-12-18T05:31:10;-3.80;99.90
11083;DHT22;5595;50.186;8.468;2022-12-18T05:33:37;-3.80;99.90
11083;DHT22;5595;50.186;8.468;2022-12-18T05:36:06;-3.80;99.90
11083;DHT22;5595;50.186;8.468;2022-12-18T05:38:35;-3.80;99.90
11083;DHT22;5595;50.186;8.468;2022-12-18T05:41:03;-3.90;99.90
11083;DHT22;5595;50.186;8.468;2022-12-18T05:43:33;-3.90;99.90
11083;DHT22;5595;50.186;8.468;2022-12-18T05:46:04;-3.80;99.90
11083;DHT22;5595;50.186;8.468;2022-12-18T05:48:31;-3.80;99.90
11083;DHT22;5595;50.186;8.468;2022-12-18T05:51:04;-3.80;99.90
11083;DHT22;5595;50.186;8.468;2022-12-18T05:53:32;-3.90;99.90
11083;DHT22;5595;50.186;8.468;2022-12-18T05:56:00;-3.80;99.90
11083;DHT22;5595;50.186;8.468;2022-12-18T05:58:28;-3.80;99.90
11083;DHT22;5595;50.186;8.468;2022-12-18T06:00:56;-3.80;99.90
11083;DHT22;5595;50.186;8.468;2022-12-18T06:03:23;-3.80;99.90
11083;DHT22;5595;50.186;8.468;2022-12-18T06:05:50;-3.80;99.90
11083;DHT22;5595;50.186;8.468;2022-12-18T06:08:17;-3.80;99.90
11083;DHT22;5595;50.186;8.468;2022-12-18T06:10:50;-3.90;99.90
11083;DHT22;5595;50.186;8.468;2022-12-18T06:13:17;-3.90;99.90
11083;DHT22;5595;50.186;8.468;2022-12-18T06:15:44;-3.80;99.90
11083;DHT22;5595;50.186;8.468;2022-12-18T06:18:12;-3.80;99.90
11083;DHT22;5595;50.186;8.468;2022-12-18T06:20:39;-3.70;99.90
11083;DHT22;5595;50.186;8.468;2022-12-18T06:23:07;-3.80;99.90
11083;DHT22;5595;50.186;8.468;2022-12-18T06:25:38;-3.80;99.90
11083;DHT22;5595;50.186;8.468;2022-12-18T06:28:05;-3.80;99.90
11083;DHT22;5595;50.186;8.468;2022-12-18T06:30:32;-3.90;99.90
11083;DHT22;5595;50.186;8.468;2022-12-18T06:32:58;-3.90;99.90
11083;DHT22;5595;50.186;8.468;2022-12-18T06:35:27;-3.80;99.90
11083;DHT22;5595;50.186;8.468;2022-12-18T06:37:53;-3.90;99.90
11083;DHT22;5595;50.186;8.468;2022-12-18T06:40:20;-3.90;99.90
11083;DHT22;5595;50.186;8.468;2022-12-18T06:42:47;-3.80;99.90
11083;DHT22;5595;50.186;8.468;2022-12-18T06:45:14;-3.90;99.90
11083;DHT22;5595;50.186;8.468;2022-12-18T06:47:41;-3.90;99.90
11083;DHT22;5595;50.186;8.468;2022-12-18T06:50:08;-3.90;99.90
11083;DHT22;5595;50.186;8.468;2022-12-18T06:52:36;-3.90;99.90
11083;DHT22;5595;50.186;8.468;2022-12-18T06:55:05;-3.90;99.90
11083;DHT22;5595;50.186;8.468;2022-12-18T06:57:34;-3.90;99.90
11083;DHT22;5595;50.186;8.468;2022-12-18T07:00:02;-3.90;99.90
11083;DHT22;5595;50.186;8.468;2022-12-18T07:02:29;-3.90;99.90
11083;DHT22;5595;50.186;8.468;2022-12-18T07:04:56;-3.90;99.90
11083;DHT22;5595;50.186;8.468;2022-12-18T07:07:23;-3.90;99.90
11083;DHT22;5595;50.186;8.468;2022-12-18T07:09:51;-3.90;99.90
11083;DHT22;5595;50.186;8.468;2022-12-18T07:12:18;-3.90;99.90
11083;DHT22;5595;50.186;8.468;2022-12-18T07:14:45;-4.00;99.90
11083;DHT22;5595;50.186;8.468;2022-12-18T07:17:12;-4.00;99.90
11083;DHT22;5595;50.186;8.468;2022-12-18T07:19:39;-3.90;99.90
11083;DHT22;5595;50.186;8.468;2022-12-18T07:22:06;-3.90;99.90
11083;DHT22;5595;50.186;8.468;2022-12-18T07:24:33;-4.00;99.90
11083;DHT22;5595;50.186;8.468;2022-12-18T07:27:01;-3.90;99.90
11083;DHT22;5595;50.186;8.468;2022-12-18T07:29:28;-4.00;99.90
11083;DHT22;5595;50.186;8.468;2022-12-18T07:31:55;-3.90;99.90
11083;DHT22;5595;50.186;8.468;2022-12-18T07:34:21;-3.90;99.90
11083;DHT22;5595;50.186;8.468;2022-12-18T07:36:48;-4.00;99.90
11083;DHT22;5595;50.186;8.468;2022-12-18T07:39:15;-4.00;99.90
11083;DHT22;5595;50.186;8.468;2022-12-18T07:41:42;-3.90;99.90
11083;DHT22;5595;50.186;8.468;2022-12-18T07:44:12;-3.90;99.90
11083;DHT22;5595;50.186;8.468;2022-12-18T07:46:39;-3.90;99.90
11083;DHT22;5595;50.186;8.468;2022-12-18T07:49:07;-3.90;99.90
11083;DHT22;5595;50.186;8.468;2022-12-18T07:51:34;-3.80;99.90
11083;DHT22;5595;50.186;8.468;2022-12-18T07:54:01;-3.80;99.90
11083;DHT22;5595;50.186;8.468;2022-12-18T07:56:28;-3.80;99.90
11083;DHT22;5595;50.186;8.468;2022-12-18T07:58:55;-3.70;99.90
11083;DHT22;5595;50.186;8.468;2022-12-18T08:01:23;-3.70;99.90
11083;DHT22;5595;50.186;8.468;2022-12-18T08:03:50;-3.70;99.90
11083;DHT22;5595;50.186;8.468;2022-12-18T08:06:17;-3.70;99.90
11083;DHT22;5595;50.186;8.468;2022-12-18T08:08:44;-3.60;99.90
11083;DHT22;5595;50.186;8.468;2022-12-18T08:11:11;-3.60;99.90
11083;DHT22;5595;50.186;8.468;2022-12-18T08:13:38;-3.50;99.90
11083;DHT22;5595;50.186;8.468;2022-12-18T08:16:06;-3.00;99.90
11083;DHT22;5595;50.186;8.468;2022-12-18T08:18:35;-3.40;99.90
11083;DHT22;5595;50.186;8.468;2022-12-18T08:21:09;-3.40;99.90
11083;DHT22;5595;50.186;8.468;2022-12-18T08:23:37;-3.30;99.90
11083;DHT22;5595;50.186;8.468;2022-12-18T08:26:04;-3.30;99.90
11083;DHT22;5595;50.186;8.468;2022-12-18T08:28:31;-3.30;99.90
11083;DHT22;5595;50.186;8.468;2022-12-18T08:30:58;-3.20;99.90
11083;DHT22;5595;50.186;8.468;2022-12-18T08:33:25;-3.20;99.90
11083;DHT22;5595;50.186;8.468;2022-12-18T08:35:54;-3.10;99.90
11083;DHT22;5595;50.186;8.468;2022-12-18T08:38:20;-3.10;99.90
11083;DHT22;5595;50.186;8.468;2022-12-18T08:40:48;-3.10;99.90
11083;DHT22;5595;50.186;8.468;2022-12-18T08:43:15;-3.00;99.90
11083;DHT22;5595;50.186;8.468;2022-12-18T08:46:02;-3.00;99.90
11083;DHT22;5595;50.186;8.468;2022-12-18T08:48:29;-2.90;99.90
11083;DHT22;5595;50.186;8.468;2022-12-18T08:50:58;-2.90;99.90
11083;DHT22;5595;50.186;8.468;2022-12-18T08:53:26;-2.80;99.90
11083;DHT22;5595;50.186;8.468;2022-12-18T08:55:53;-2.80;99.90
11083;DHT22;5595;50.186;8.468;2022-12-18T08:58:20;-2.80;99.90
11083;DHT22;5595;50.186;8.468;2022-12-18T09:00:47;-2.70;99.90
11083;DHT22;5595;50.186;8.468;2022-12-18T09:03:14;-2.70;99.90
11083;DHT22;5595;50.186;8.468;2022-12-18T09:05:41;-2.60;99.90
11083;DHT22;5595;50.186;8.468;2022-12-18T09:08:10;-2.70;99.90
11083;DHT22;5595;50.186;8.468;2022-12-18T09:10:41;-2.70;99.90
11083;DHT22;5595;50.186;8.468;2022-12-18T09:13:09;-2.70;99.90
11083;DHT22;5595;50.186;8.468;2022-12-18T09:15:40;-2.70;99.90
11083;DHT22;5595;50.186;8.468;2022-12-18T09:18:07;-2.70;99.90
11083;DHT22;5595;50.186;8.468;2022-12-18T09:20:34;-2.70;99.90
11083;DHT22;5595;50.186;8.468;2022-12-18T09:23:01;-2.70;99.90
11083;DHT22;5595;50.186;8.468;2022-12-18T09:25:30;-2.70;99.90
11083;DHT22;5595;50.186;8.468;2022-12-18T09:27:58;-2.60;99.90
11083;DHT22;5595;50.186;8.468;2022-12-18T09:30:25;-2.60;99.90
11083;DHT22;5595;50.186;8.468;2022-12-18T09:32:52;-2.50;99.90
11083;DHT22;5595;50.186;8.468;2022-12-18T09:35:22;-2.50;99.90
11083;DHT22;5595;50.186;8.468;2022-12-18T09:37:48;-2.50;99.90
11083;DHT22;5595;50.186;8.468;2022-12-18T09:40:17;-2.50;99.90
11083;DHT22;5595;50.186;8.468;2022-12-18T09:42:49;-2.40;99.90
11083;DHT22;5595;50.186;8.468;2022-12-18T09:45:18;-2.40;99.90
11083;DHT22;5595;50.186;8.468;2022-12-18T09:47:50;-2.40;99.90
11083;DHT22;5595;50.186;8.468;2022-12-18T09:50:24;-2.40;99.90
11083;DHT22;5595;50.186;8.468;2022-12-18T09:52:56;-2.40;99.90
11083;DHT22;5595;50.186;8.468;2022-12-18T09:55:28;-2.40;99.90
11083;DHT22;5595;50.186;8.468;2022-12-18T09:58:00;-2.40;99.90
11083;DHT22;5595;50.186;8.468;2022-12-18T10:00:29;-2.40;99.90
11083;DHT22;5595;50.186;8.468;2022-12-18T10:03:01;-2.40;99.90
11083;DHT22;5595;50.186;8.468;2022-12-18T10:05:34;-2.40;99.90
11083;DHT22;5595;50.186;8.468;2022-12-18T10:08:08;-2.50;99.90
11083;DHT22;5595;50.186;8.468;2022-12-18T10:10:41;-2.60;99.90
11083;DHT22;5595;50.186;8.468;2022-12-18T10:13:22;-2.70;99.90
11083;DHT22;5595;50.186;8.468;2022-12-18T10:16:06;-2.70;99.90
11083;DHT22;5595;50.186;8.468;2022-12-18T10:19:00;-2.70;99.90
11083;DHT22;5595;50.186;8.468;2022-12-18T10:21:33;-2.70;99.90
11083;DHT22;5595;50.186;8.468;2022-12-18T10:24:12;-2.60;99.90
11083;DHT22;5595;50.186;8.468;2022-12-18T10:26:42;-2.60;99.90
11083;DHT22;5595;50.186;8.468;2022-12-18T10:29:13;-2.70;99.90
11083;DHT22;5595;50.186;8.468;2022-12-18T10:31:40;-2.70;99.90
11083;DHT22;5595;50.186;8.468;2022-12-18T10:34:09;-2.60;99.90
11083;DHT22;5595;50.186;8.468;2022-12-18T10:36:37;-2.50;99.90
11083;DHT22;5595;50.186;8.468;2022-12-18T10:39:15;-2.60;99.90
11083;DHT22;5595;50.186;8.468;2022-12-18T10:41:42;-2.50;99.90
11083;DHT22;5595;50.186;8.468;2022-12-18T10:44:15;-2.50;99.90
11083;DHT22;5595;50.186;8.468;2022-12-18T10:46:44;-2.50;99.90
11083;DHT22;5595;50.186;8.468;2022-12-18T10:49:23;-2.50;99.90
11083;DHT22;5595;50.186;8.468;2022-12-18T10:51:52;-2.50;99.90
11083;DHT22;5595;50.186;8.468;2022-12-18T10:54:32;-2.40;99.90
11083;DHT22;5595;50.186;8.468;2022-12-18T10:57:14;-2.40;99.90
11083;DHT22;5595;50.186;8.468;2022-12-18T10:59:51;-2.40;99.90
11083;DHT22;5595;50.186;8.468;2022-12-18T11:02:26;-2.50;99.90
11083;DHT22;5595;50.186;8.468;2022-12-18T11:04:54;-2.50;99.90
11083;DHT22;5595;50.186;8.468;2022-12-18T11:07:20;-2.40;99.90
11083;DHT22;5595;50.186;8.468;2022-12-18T11:09:59;-2.50;99.90
11083;DHT22;5595;50.186;8.468;2022-12-18T11:12:30;-2.40;99.90
11083;DHT22;5595;50.186;8.468;2022-12-18T11:14:58;-2.40;99.90
11083;DHT22;5595;50.186;8.468;2022-12-18T11:17:28;-2.40;99.90
11083;DHT22;5595;50.186;8.468;2022-12-18T11:19:57;-2.40;99.90
11083;DHT22;5595;50.186;8.468;2022-12-18T11:22:25;-2.40;99.90
11083;DHT22;5595;50.186;8.468;2022-12-18T11:24:55;-2.50;99.90
11083;DHT22;5595;50.186;8.468;2022-12-18T11:27:23;-2.60;99.90
11083;DHT22;5595;50.186;8.468;2022-12-18T11:29:51;-2.60;99.90
11083;DHT22;5595;50.186;8.468;2022-12-18T11:32:29;-2.60;99.90
11083;DHT22;5595;50.186;8.468;2022-12-18T11:35:02;-2.50;99.90
11083;DHT22;5595;50.186;8.468;2022-12-18T11:37:31;-2.50;99.90
11083;DHT22;5595;50.186;8.468;2022-12-18T11:40:01;-2.60;99.90
11083;DHT22;5595;50.186;8.468;2022-12-18T11:42:37;-2.80;99.90
11083;DHT22;5595;50.186;8.468;2022-12-18T11:45:23;-2.70;99.90
11083;DHT22;5595;50.186;8.468;2022-12-18T11:47:58;-2.60;99.90
11083;DHT22;5595;50.186;8.468;2022-12-18T11:50:29;-2.60;99.90
11083;DHT22;5595;50.186;8.468;2022-12-18T11:52:58;-2.50;99.90
11083;DHT22;5595;50.186;8.468;2022-12-18T11:55:31;-2.40;99.90
11083;DHT22;5595;50.186;8.468;2022-12-18T11:58:05;-2.40;99.90
11083;DHT22;5595;50.186;8.468;2022-12-18T12:00:36;-2.30;99.90
11083;DHT22;5595;50.186;8.468;2022-12-18T12:03:20;-2.40;99.90
11083;DHT22;5595;50.186;8.468;2022-12-18T12:05:57;-2.30;99.90
11083;DHT22;5595;50.186;8.468;2022-12-18T12:08:34;-2.30;99.90
11083;DHT22;5595;50.186;8.468;2022-12-18T12:11:12;-2.20;99.90
11083;DHT22;5595;50.186;8.468;2022-12-18T12:13:51;-2.10;99.90
11083;DHT22;5595;50.186;8.468;2022-12-18T12:16:25;-2.00;99.90
11083;DHT22;5595;50.186;8.468;2022-12-18T12:19:06;-2.00;99.90
11083;DHT22;5595;50.186;8.468;2022-12-18T12:21:40;-2.00;99.90
11083;DHT22;5595;50.186;8.468;2022-12-18T12:24:20;-2.00;99.90
11083;DHT22;5595;50.186;8.468;2022-12-18T12:27:01;-2.10;99.90
11083;DHT22;5595;50.186;8.468;2022-12-18T12:29:46;-2.30;99.90
11083;DHT22;5595;50.186;8.468;2022-12-18T12:32:25;-2.40;99.90
11083;DHT22;5595;50.186;8.468;2022-12-18T12:35:10;-2.50;99.90
11083;DHT22;5595;50.186;8.468;2022-12-18T12:37:47;-2.50;99.90
11083;DHT22;5595;50.186;8.468;2022-12-18T12:40:19;-2.60;99.90
11083;DHT22;5595;50.186;8.468;2022-12-18T12:42:54;-2.60;99.90
11083;DHT22;5595;50.186;8.468;2022-12-18T12:45:43;-2.50;99.90
11083;DHT22;5595;50.186;8.468;2022-12-18T12:48:17;-2.50;99.90
11083;DHT22;5595;50.186;8.468;2022-12-18T12:50:50;-2.60;99.90
11083;DHT22;5595;50.186;8.468;2022-12-18T12:53:26;-2.60;99.90
11083;DHT22;5595;50.186;8.468;2022-12-18T12:55:55;-2.70;99.90
11083;DHT22;5595;50.186;8.468;2022-12-18T12:58:30;-2.60;99.90
11083;DHT22;5595;50.186;8.468;2022-12-18T13:01:14;-2.50;99.90
11083;DHT22;5595;50.186;8.468;2022-12-18T13:03:55;-2.50;99.90
11083;DHT22;5595;50.186;8.468;2022-12-18T13:06:33;-2.70;99.90
11083;DHT22;5595;50.186;8.468;2022-12-18T13:09:03;-2.80;99.90
11083;DHT22;5595;50.186;8.468;2022-12-18T13:11:34;-2.90;99.90
11083;DHT22;5595;50.186;8.468;2022-12-18T13:14:26;-2.90;99.90
11083;DHT22;5595;50.186;8.468;2022-12-18T13:17:15;-2.70;99.90
11083;DHT22;5595;50.186;8.468;2022-12-18T13:19:49;-2.60;99.90
11083;DHT22;5595;50.186;8.468;2022-12-18T13:22:30;-2.60;99.90
11083;DHT22;5595;50.186;8.468;2022-12-18T13:24:58;-2.80;99.90
11083;DHT22;5595;50.186;8.468;2022-12-18T13:27:52;-2.80;99.90
11083;DHT22;5595;50.186;8.468;2022-12-18T13:30:44;-2.90;99.90
11083;DHT22;5595;50.186;8.468;2022-12-18T13:33:40;-2.80;99.90
11083;DHT22;5595;50.186;8.468;2022-12-18T13:36:16;-2.70;99.90
11083;DHT22;5595;50.186;8.468;2022-12-18T13:39:15;-2.70;99.90
11083;DHT22;5595;50.186;8.468;2022-12-18T13:41:48;-3.00;99.90
11083;DHT22;5595;50.186;8.468;2022-12-18T13:44:28;-3.20;99.90
11083;DHT22;5595;50.186;8.468;2022-12-18T13:46:57;-3.20;99.90
11083;DHT22;5595;50.186;8.468;2022-12-18T13:49:26;-3.30;99.90
11083;DHT22;5595;50.186;8.468;2022-12-18T13:51:56;-3.30;99.90
11083;DHT22;5595;50.186;8.468;2022-12-18T13:54:30;-3.30;99.90
11083;DHT22;5595;50.186;8.468;2022-12-18T13:57:00;-3.30;99.90
11083;DHT22;5595;50.186;8.468;2022-12-18T13:59:33;-3.20;99.90
11083;DHT22;5595;50.186;8.468;2022-12-18T14:02:11;-3.20;99.90
11083;DHT22;5595;50.186;8.468;2022-12-18T14:04:39;-3.20;99.90
11083;DHT22;5595;50.186;8.468;2022-12-18T14:07:09;-3.30;99.90
11083;DHT22;5595;50.186;8.468;2022-12-18T14:09:41;-3.30;99.90
11083;DHT22;5595;50.186;8.468;2022-12-18T14:12:15;-3.40;99.90
11083;DHT22;5595;50.186;8.468;2022-12-18T14:15:00;-3.40;99.90
11083;DHT22;5595;50.186;8.468;2022-12-18T14:17:27;-3.50;99.90
11083;DHT22;5595;50.186;8.468;2022-12-18T14:19:55;-3.40;99.90
11083;DHT22;5595;50.186;8.468;2022-12-18T14:22:25;-3.40;99.90
11083;DHT22;5595;50.186;8.468;2022-12-18T14:25:20;-3.50;99.90
11083;DHT22;5595;50.186;8.468;2022-12-18T14:27:51;-3.40;99.90
11083;DHT22;5595;50.186;8.468;2022-12-18T14:30:27;-3.30;99.90
11083;DHT22;5595;50.186;8.468;2022-12-18T14:33:02;-3.30;99.90
11083;DHT22;5595;50.186;8.468;2022-12-18T14:35:29;-3.30;99.90
11083;DHT22;5595;50.186;8.468;2022-12-18T14:38:20;-3.40;99.90
11083;DHT22;5595;50.186;8.468;2022-12-18T14:40:52;-3.50;99.90
11083;DHT22;5595;50.186;8.468;2022-12-18T14:43:24;-3.50;99.90
11083;DHT22;5595;50.186;8.468;2022-12-18T14:45:51;-2.90;99.90
11083;DHT22;5595;50.186;8.468;2022-12-18T14:48:20;-3.60;99.90
11083;DHT22;5595;50.186;8.468;2022-12-18T14:50:55;-3.60;99.90
11083;DHT22;5595;50.186;8.468;2022-12-18T14:53:27;-3.60;99.90
11083;DHT22;5595;50.186;8.468;2022-12-18T14:55:57;-3.60;99.90
11083;DHT22;5595;50.186;8.468;2022-12-18T14:58:24;-3.60;99.90
11083;DHT22;5595;50.186;8.468;2022-12-18T15:00:51;-3.70;99.90
11083;DHT22;5595;50.186;8.468;2022-12-18T15:03:19;-3.70;99.90
11083;DHT22;5595;50.186;8.468;2022-12-18T15:05:47;-3.70;99.90
11083;DHT22;5595;50.186;8.468;2022-12-18T15:08:28;-3.70;99.90
11083;DHT22;5595;50.186;8.468;2022-12-18T15:10:57;-3.70;99.90
11083;DHT22;5595;50.186;8.468;2022-12-18T15:13:24;-3.70;99.90
11083;DHT22;5595;50.186;8.468;2022-12-18T15:15:52;-3.70;99.90
11083;DHT22;5595;50.186;8.468;2022-12-18T15:18:21;-3.70;99.90
11083;DHT22;5595;50.186;8.468;2022-12-18T15:20:56;-3.70;99.90
11083;DHT22;5595;50.186;8.468;2022-12-18T15:23:26;-3.70;99.90
11083;DHT22;5595;50.186;8.468;2022-12-18T15:25:59;-3.70;99.90
11083;DHT22;5595;50.186;8.468;2022-12-18T15:28:30;-3.70;99.90
11083;DHT22;5595;50.186;8.468;2022-12-18T15:31:03;-3.70;99.90
11083;DHT22;5595;50.186;8.468;2022-12-18T15:33:32;-3.70;99.90
11083;DHT22;5595;50.186;8.468;2022-12-18T15:36:01;-3.70;99.90
11083;DHT22;5595;50.186;8.468;2022-12-18T15:38:29;-3.80;99.90
11083;DHT22;5595;50.186;8.468;2022-12-18T15:40:56;-3.70;99.90
11083;DHT22;5595;50.186;8.468;2022-12-18T15:43:26;-3.80;99.90
11083;DHT22;5595;50.186;8.468;2022-12-18T15:46:02;-3.80;99.90
11083;DHT22;5595;50.186;8.468;2022-12-18T15:48:29;-3.80;99.90
11083;DHT22;5595;50.186;8.468;2022-12-18T15:50:57;-3.70;99.90
11083;DHT22;5595;50.186;8.468;2022-12-18T15:53:26;-3.70;99.90
11083;DHT22;5595;50.186;8.468;2022-12-18T15:55:54;-3.70;99.90
11083;DHT22;5595;50.186;8.468;2022-12-18T15:58:39;-3.70;99.90
11083;DHT22;5595;50.186;8.468;2022-12-18T16:01:10;-3.60;99.90
11083;DHT22;5595;50.186;8.468;2022-12-18T16:03:37;-3.60;99.90
11083;DHT22;5595;50.186;8.468;2022-12-18T16:06:05;-3.60;99.90
11083;DHT22;5595;50.186;8.468;2022-12-18T16:08:32;-3.50;99.90